Terminal Aerodrome Forecast
Issued by NWS Memphis, TN

Home | Current Version | Previous Version | Text Only | Print | Product List | Glossary On
Versions: 1 2 3 4 5 6 7 8 9 10 11 12 13 14 15 16 17 18 19 20 21 22 23 24 25 26 27 28 29
000
FTUS44 KMEG 172332
TAFMKL
TAF
KMKL 172332Z 1800/1824 00000KT P6SM SCT018 BKN120
      TEMPO 1800/1801 BKN018
     FM180100 00000KT P6SM SCT250
     FM180600 00000KT 3SM BR SCT005
      TEMPO 1806/1808 1SM BR BKN005
     FM180800 00000KT 1SM BR OVC004
      TEMPO 1808/1812 1/2SM FG VV002
     FM181400 11003KT 2SM BR OVC008
     FM181500 10005KT P6SM SCT015 OVC250
     FM182200 10005KT P6SM VCTS BKN040CB OVC120=

USA.gov is the U.S. government's official web portal to all federal, state and local government web resources and services.